sensor_id;sensor_type;location;lat;lon;timestamp;P1;durP1;ratioP1;P2;durP2;ratioP2
50012;SDS011;35901;48.694;9.476;2022-10-22T00:00:53;5.07;;;3.03;;
50012;SDS011;35901;48.694;9.476;2022-10-22T00:03:20;5.60;;;3.27;;
50012;SDS011;35901;48.694;9.476;2022-10-22T00:05:46;7.70;;;3.63;;
50012;SDS011;35901;48.694;9.476;2022-10-22T00:08:12;4.83;;;3.30;;
50012;SDS011;35901;48.694;9.476;2022-10-22T00:10:38;4.33;;;2.97;;
50012;SDS011;35901;48.694;9.476;2022-10-22T00:13:04;3.70;;;2.50;;
50012;SDS011;35901;48.694;9.476;2022-10-22T00:15:30;3.43;;;2.80;;
50012;SDS011;35901;48.694;9.476;2022-10-22T00:17:55;2.77;;;2.57;;
50012;SDS011;35901;48.694;9.476;2022-10-22T00:20:21;4.70;;;3.10;;
50012;SDS011;35901;48.694;9.476;2022-10-22T00:22:47;4.20;;;2.90;;
50012;SDS011;35901;48.694;9.476;2022-10-22T00:25:13;3.03;;;2.73;;
50012;SDS011;35901;48.694;9.476;2022-10-22T00:27:38;3.03;;;2.70;;
50012;SDS011;35901;48.694;9.476;2022-10-22T00:30:04;6.70;;;2.50;;
50012;SDS011;35901;48.694;9.476;2022-10-22T00:32:30;3.17;;;2.57;;
50012;SDS011;35901;48.694;9.476;2022-10-22T00:34:56;3.10;;;2.80;;
50012;SDS011;35901;48.694;9.476;2022-10-22T00:37:22;2.70;;;2.27;;
50012;SDS011;35901;48.694;9.476;2022-10-22T00:39:47;2.47;;;2.27;;
50012;SDS011;35901;48.694;9.476;2022-10-22T00:42:20;2.70;;;2.20;;
50012;SDS011;35901;48.694;9.476;2022-10-22T00:47:52;5.07;;;2.70;;
50012;SDS011;35901;48.694;9.476;2022-10-22T00:50:29;3.00;;;2.23;;
50012;SDS011;35901;48.694;9.476;2022-10-22T00:53:02;3.47;;;2.43;;
50012;SDS011;35901;48.694;9.476;2022-10-22T00:55:30;2.60;;;2.00;;
50012;SDS011;35901;48.694;9.476;2022-10-22T00:57:57;3.03;;;2.50;;
50012;SDS011;35901;48.694;9.476;2022-10-22T01:00:25;4.10;;;2.20;;
50012;SDS011;35901;48.694;9.476;2022-10-22T01:02:51;2.20;;;2.00;;
50012;SDS011;35901;48.694;9.476;2022-10-22T01:05:18;2.50;;;2.30;;
50012;SDS011;35901;48.694;9.476;2022-10-22T01:07:48;2.40;;;2.20;;
50012;SDS011;35901;48.694;9.476;2022-10-22T01:16:14;3.77;;;2.20;;
50012;SDS011;35901;48.694;9.476;2022-10-22T01:19:10;2.10;;;2.00;;
50012;SDS011;35901;48.694;9.476;2022-10-22T01:21:45;3.00;;;2.17;;
50012;SDS011;35901;48.694;9.476;2022-10-22T01:24:24;3.40;;;2.10;;
50012;SDS011;35901;48.694;9.476;2022-10-22T01:26:56;3.33;;;2.00;;
50012;SDS011;35901;48.694;9.476;2022-10-22T01:31:57;2.40;;;2.00;;
50012;SDS011;35901;48.694;9.476;2022-10-22T01:34:26;2.50;;;2.03;;
50012;SDS011;35901;48.694;9.476;2022-10-22T01:36:54;2.73;;;1.97;;
50012;SDS011;35901;48.694;9.476;2022-10-22T01:39:21;2.07;;;1.87;;
50012;SDS011;35901;48.694;9.476;2022-10-22T01:41:49;1.90;;;1.80;;
50012;SDS011;35901;48.694;9.476;2022-10-22T01:44:22;1.90;;;1.60;;
50012;SDS011;35901;48.694;9.476;2022-10-22T01:46:54;1.80;;;1.67;;
50012;SDS011;35901;48.694;9.476;2022-10-22T01:50:05;2.70;;;1.60;;
50012;SDS011;35901;48.694;9.476;2022-10-22T02:01:07;2.83;;;1.13;;
50012;SDS011;35901;48.694;9.476;2022-10-22T02:03:49;3.17;;;1.33;;
50012;SDS011;35901;48.694;9.476;2022-10-22T02:06:20;1.20;;;1.10;;
50012;SDS011;35901;48.694;9.476;2022-10-22T02:08:47;5.67;;;1.33;;
50012;SDS011;35901;48.694;9.476;2022-10-22T02:11:16;1.23;;;1.23;;
50012;SDS011;35901;48.694;9.476;2022-10-22T02:13:43;3.13;;;1.23;;
50012;SDS011;35901;48.694;9.476;2022-10-22T02:16:21;1.13;;;1.10;;
50012;SDS011;35901;48.694;9.476;2022-10-22T02:18:53;0.87;;;0.87;;
50012;SDS011;35901;48.694;9.476;2022-10-22T02:21:21;0.87;;;0.87;;
50012;SDS011;35901;48.694;9.476;2022-10-22T02:23:47;1.10;;;1.10;;
50012;SDS011;35901;48.694;9.476;2022-10-22T02:26:15;1.00;;;0.97;;
50012;SDS011;35901;48.694;9.476;2022-10-22T02:31:25;1.47;;;1.10;;
50012;SDS011;35901;48.694;9.476;2022-10-22T02:33:55;1.00;;;1.00;;
50012;SDS011;35901;48.694;9.476;2022-10-22T02:36:26;0.90;;;0.90;;
50012;SDS011;35901;48.694;9.476;2022-10-22T02:38:53;1.27;;;0.90;;
50012;SDS011;35901;48.694;9.476;2022-10-22T02:41:19;1.03;;;0.90;;
50012;SDS011;35901;48.694;9.476;2022-10-22T02:43:49;0.90;;;0.90;;
50012;SDS011;35901;48.694;9.476;2022-10-22T02:46:17;1.10;;;1.10;;
50012;SDS011;35901;48.694;9.476;2022-10-22T02:48:43;2.23;;;1.17;;
50012;SDS011;35901;48.694;9.476;2022-10-22T02:51:09;1.10;;;1.10;;
50012;SDS011;35901;48.694;9.476;2022-10-22T02:53:34;2.20;;;1.30;;
50012;SDS011;35901;48.694;9.476;2022-10-22T02:56:00;1.03;;;1.00;;
50012;SDS011;35901;48.694;9.476;2022-10-22T02:58:26;1.43;;;1.10;;
50012;SDS011;35901;48.694;9.476;2022-10-22T03:00:51;1.30;;;1.20;;
50012;SDS011;35901;48.694;9.476;2022-10-22T03:03:17;1.13;;;1.03;;
50012;SDS011;35901;48.694;9.476;2022-10-22T03:05:43;1.30;;;1.20;;
50012;SDS011;35901;48.694;9.476;2022-10-22T03:08:08;1.20;;;1.20;;
50012;SDS011;35901;48.694;9.476;2022-10-22T03:10:36;1.90;;;1.03;;
50012;SDS011;35901;48.694;9.476;2022-10-22T03:13:01;1.23;;;1.10;;
50012;SDS011;35901;48.694;9.476;2022-10-22T03:15:27;1.00;;;1.00;;
50012;SDS011;35901;48.694;9.476;2022-10-22T03:17:53;1.30;;;1.20;;
50012;SDS011;35901;48.694;9.476;2022-10-22T03:20:18;1.10;;;1.00;;
50012;SDS011;35901;48.694;9.476;2022-10-22T03:22:44;1.20;;;1.10;;
50012;SDS011;35901;48.694;9.476;2022-10-22T03:25:11;1.00;;;1.00;;
50012;SDS011;35901;48.694;9.476;2022-10-22T03:27:41;0.97;;;0.90;;
50012;SDS011;35901;48.694;9.476;2022-10-22T03:30:07;1.00;;;1.00;;
50012;SDS011;35901;48.694;9.476;2022-10-22T03:32:33;1.43;;;1.10;;
50012;SDS011;35901;48.694;9.476;2022-10-22T03:34:59;2.10;;;1.00;;
50012;SDS011;35901;48.694;9.476;2022-10-22T03:37:25;1.47;;;1.10;;
50012;SDS011;35901;48.694;9.476;2022-10-22T03:39:51;1.27;;;1.00;;
50012;SDS011;35901;48.694;9.476;2022-10-22T03:42:18;1.20;;;1.10;;
50012;SDS011;35901;48.694;9.476;2022-10-22T03:44:45;1.40;;;1.00;;
50012;SDS011;35901;48.694;9.476;2022-10-22T03:47:11;1.07;;;0.97;;
50012;SDS011;35901;48.694;9.476;2022-10-22T03:49:37;1.00;;;0.90;;
50012;SDS011;35901;48.694;9.476;2022-10-22T03:52:10;2.07;;;0.90;;
50012;SDS011;35901;48.694;9.476;2022-10-22T03:54:37;2.43;;;1.00;;
50012;SDS011;35901;48.694;9.476;2022-10-22T03:57:03;2.00;;;0.90;;
50012;SDS011;35901;48.694;9.476;2022-10-22T03:59:37;1.17;;;0.87;;
50012;SDS011;35901;48.694;9.476;2022-10-22T04:02:04;1.83;;;0.90;;
50012;SDS011;35901;48.694;9.476;2022-10-22T04:04:30;0.87;;;0.87;;
50012;SDS011;35901;48.694;9.476;2022-10-22T04:06:56;1.17;;;0.80;;
50012;SDS011;35901;48.694;9.476;2022-10-22T04:09:21;1.70;;;0.70;;
50012;SDS011;35901;48.694;9.476;2022-10-22T04:11:47;2.13;;;1.10;;
50012;SDS011;35901;48.694;9.476;2022-10-22T04:14:13;3.13;;;1.00;;
50012;SDS011;35901;48.694;9.476;2022-10-22T04:16:39;2.77;;;1.40;;
50012;SDS011;35901;48.694;9.476;2022-10-22T04:19:05;2.20;;;1.00;;
50012;SDS011;35901;48.694;9.476;2022-10-22T04:21:31;1.87;;;0.93;;
50012;SDS011;35901;48.694;9.476;2022-10-22T04:23:57;2.00;;;1.10;;
50012;SDS011;35901;48.694;9.476;2022-10-22T04:26:23;4.30;;;1.30;;
50012;SDS011;35901;48.694;9.476;2022-10-22T04:28:49;1.00;;;1.00;;
50012;SDS011;35901;48.694;9.476;2022-10-22T04:31:17;1.10;;;1.10;;
50012;SDS011;35901;48.694;9.476;2022-10-22T04:33:50;1.17;;;1.10;;
50012;SDS011;35901;48.694;9.476;2022-10-22T04:36:20;1.50;;;1.10;;
50012;SDS011;35901;48.694;9.476;2022-10-22T04:38:50;1.20;;;1.10;;
50012;SDS011;35901;48.694;9.476;2022-10-22T04:41:18;1.47;;;1.37;;
50012;SDS011;35901;48.694;9.476;2022-10-22T04:43:46;2.50;;;1.30;;
50012;SDS011;35901;48.694;9.476;2022-10-22T04:46:13;1.97;;;1.40;;
50012;SDS011;35901;48.694;9.476;2022-10-22T04:48:41;1.50;;;1.40;;
50012;SDS011;35901;48.694;9.476;2022-10-22T04:51:10;1.80;;;1.30;;
50012;SDS011;35901;48.694;9.476;2022-10-22T04:53:37;1.40;;;1.30;;
50012;SDS011;35901;48.694;9.476;2022-10-22T04:58:34;2.13;;;1.20;;
50012;SDS011;35901;48.694;9.476;2022-10-22T05:00:59;1.67;;;1.30;;
50012;SDS011;35901;48.694;9.476;2022-10-22T05:03:25;2.40;;;1.50;;
50012;SDS011;35901;48.694;9.476;2022-10-22T05:05:51;2.10;;;1.90;;
50012;SDS011;35901;48.694;9.476;2022-10-22T05:08:16;2.00;;;1.80;;
50012;SDS011;35901;48.694;9.476;2022-10-22T05:10:42;6.33;;;2.10;;
50012;SDS011;35901;48.694;9.476;2022-10-22T05:13:08;2.07;;;1.97;;
50012;SDS011;35901;48.694;9.476;2022-10-22T05:15:33;3.20;;;2.33;;
50012;SDS011;35901;48.694;9.476;2022-10-22T05:17:59;4.00;;;2.00;;
50012;SDS011;35901;48.694;9.476;2022-10-22T05:20:24;4.33;;;2.70;;
50012;SDS011;35901;48.694;9.476;2022-10-22T05:22:50;2.47;;;2.00;;
50012;SDS011;35901;48.694;9.476;2022-10-22T05:25:16;4.53;;;2.77;;
50012;SDS011;35901;48.694;9.476;2022-10-22T05:27:41;2.77;;;2.60;;
50012;SDS011;35901;48.694;9.476;2022-10-22T05:30:07;3.37;;;2.93;;
50012;SDS011;35901;48.694;9.476;2022-10-22T05:32:33;4.70;;;3.00;;
50012;SDS011;35901;48.694;9.476;2022-10-22T05:34:59;4.70;;;2.97;;
50012;SDS011;35901;48.694;9.476;2022-10-22T05:37:25;2.87;;;2.63;;
50012;SDS011;35901;48.694;9.476;2022-10-22T05:39:50;3.30;;;3.00;;
50012;SDS011;35901;48.694;9.476;2022-10-22T05:42:16;3.40;;;3.10;;
50012;SDS011;35901;48.694;9.476;2022-10-22T05:44:42;3.57;;;3.27;;
50012;SDS011;35901;48.694;9.476;2022-10-22T05:47:07;4.23;;;2.90;;
50012;SDS011;35901;48.694;9.476;2022-10-22T05:49:34;2.87;;;2.60;;
50012;SDS011;35901;48.694;9.476;2022-10-22T05:51:59;2.70;;;2.50;;
50012;SDS011;35901;48.694;9.476;2022-10-22T05:54:25;2.33;;;2.13;;
50012;SDS011;35901;48.694;9.476;2022-10-22T05:56:51;2.70;;;2.50;;
50012;SDS011;35901;48.694;9.476;2022-10-22T05:59:16;4.10;;;3.17;;
50012;SDS011;35901;48.694;9.476;2022-10-22T06:01:42;3.53;;;2.60;;
50012;SDS011;35901;48.694;9.476;2022-10-22T06:04:09;2.70;;;2.60;;
50012;SDS011;35901;48.694;9.476;2022-10-22T06:06:41;5.00;;;3.13;;
50012;SDS011;35901;48.694;9.476;2022-10-22T06:11:39;5.00;;;3.20;;
50012;SDS011;35901;48.694;9.476;2022-10-22T06:14:05;3.87;;;3.07;;
50012;SDS011;35901;48.694;9.476;2022-10-22T06:16:31;3.87;;;2.70;;
50012;SDS011;35901;48.694;9.476;2022-10-22T06:19:00;3.33;;;2.57;;
50012;SDS011;35901;48.694;9.476;2022-10-22T06:21:26;2.27;;;2.17;;
50012;SDS011;35901;48.694;9.476;2022-10-22T06:23:54;3.60;;;2.73;;
50012;SDS011;35901;48.694;9.476;2022-10-22T06:26:20;3.43;;;2.90;;
50012;SDS011;35901;48.694;9.476;2022-10-22T06:28:45;3.43;;;2.43;;
50012;SDS011;35901;48.694;9.476;2022-10-22T06:31:11;3.33;;;2.50;;
50012;SDS011;35901;48.694;9.476;2022-10-22T06:33:37;3.40;;;2.70;;
50012;SDS011;35901;48.694;9.476;2022-10-22T06:36:19;5.37;;;2.70;;
50012;SDS011;35901;48.694;9.476;2022-10-22T06:38:46;2.90;;;2.10;;
50012;SDS011;35901;48.694;9.476;2022-10-22T06:41:15;4.80;;;2.00;;
50012;SDS011;35901;48.694;9.476;2022-10-22T06:43:41;7.10;;;2.50;;
50012;SDS011;35901;48.694;9.476;2022-10-22T06:46:11;4.43;;;2.17;;
50012;SDS011;35901;48.694;9.476;2022-10-22T06:48:38;3.03;;;2.07;;
50012;SDS011;35901;48.694;9.476;2022-10-22T06:51:09;2.07;;;1.97;;
50012;SDS011;35901;48.694;9.476;2022-10-22T06:53:35;2.10;;;1.90;;
50012;SDS011;35901;48.694;9.476;2022-10-22T06:56:09;2.50;;;2.40;;
50012;SDS011;35901;48.694;9.476;2022-10-22T06:58:36;2.73;;;2.47;;
50012;SDS011;35901;48.694;9.476;2022-10-22T07:01:10;2.80;;;2.60;;
50012;SDS011;35901;48.694;9.476;2022-10-22T07:03:38;3.77;;;2.73;;
50012;SDS011;35901;48.694;9.476;2022-10-22T07:06:06;3.43;;;2.40;;
50012;SDS011;35901;48.694;9.476;2022-10-22T07:08:33;3.97;;;2.70;;
50012;SDS011;35901;48.694;9.476;2022-10-22T07:11:06;2.40;;;2.20;;
50012;SDS011;35901;48.694;9.476;2022-10-22T07:13:34;4.20;;;2.33;;
50012;SDS011;35901;48.694;9.476;2022-10-22T07:16:01;2.80;;;2.43;;
50012;SDS011;35901;48.694;9.476;2022-10-22T07:18:27;2.70;;;2.50;;
50012;SDS011;35901;48.694;9.476;2022-10-22T07:20:53;3.93;;;2.63;;
50012;SDS011;35901;48.694;9.476;2022-10-22T07:23:19;3.47;;;3.00;;
50012;SDS011;35901;48.694;9.476;2022-10-22T07:25:44;6.80;;;3.23;;
50012;SDS011;35901;48.694;9.476;2022-10-22T07:28:10;3.30;;;3.10;;
50012;SDS011;35901;48.694;9.476;2022-10-22T07:30:36;5.03;;;2.67;;
50012;SDS011;35901;48.694;9.476;2022-10-22T07:33:03;2.47;;;2.27;;
50012;SDS011;35901;48.694;9.476;2022-10-22T07:35:28;2.70;;;2.50;;
50012;SDS011;35901;48.694;9.476;2022-10-22T07:37:54;2.67;;;2.47;;
50012;SDS011;35901;48.694;9.476;2022-10-22T07:40:20;2.77;;;2.57;;
50012;SDS011;35901;48.694;9.476;2022-10-22T07:42:46;3.30;;;2.97;;
50012;SDS011;35901;48.694;9.476;2022-10-22T07:45:12;5.30;;;3.97;;
50012;SDS011;35901;48.694;9.476;2022-10-22T07:47:37;5.43;;;3.70;;
50012;SDS011;35901;48.694;9.476;2022-10-22T07:50:03;4.10;;;3.80;;
50012;SDS011;35901;48.694;9.476;2022-10-22T07:52:30;4.07;;;3.77;;
50012;SDS011;35901;48.694;9.476;2022-10-22T07:54:56;4.37;;;3.50;;
50012;SDS011;35901;48.694;9.476;2022-10-22T07:57:21;3.50;;;3.30;;
50012;SDS011;35901;48.694;9.476;2022-10-22T07:59:47;4.87;;;3.20;;
50012;SDS011;35901;48.694;9.476;2022-10-22T08:02:12;3.17;;;2.97;;
50012;SDS011;35901;48.694;9.476;2022-10-22T08:04:38;4.70;;;3.33;;
50012;SDS011;35901;48.694;9.476;2022-10-22T08:07:04;3.57;;;3.30;;
50012;SDS011;35901;48.694;9.476;2022-10-22T08:09:30;5.20;;;2.80;;
50012;SDS011;35901;48.694;9.476;2022-10-22T08:11:55;4.07;;;2.80;;
50012;SDS011;35901;48.694;9.476;2022-10-22T08:14:21;4.60;;;2.43;;
50012;SDS011;35901;48.694;9.476;2022-10-22T08:16:47;3.97;;;2.60;;
50012;SDS011;35901;48.694;9.476;2022-10-22T08:19:13;2.83;;;2.57;;
50012;SDS011;35901;48.694;9.476;2022-10-22T08:21:43;3.17;;;2.00;;
50012;SDS011;35901;48.694;9.476;2022-10-22T08:24:09;2.30;;;2.10;;
50012;SDS011;35901;48.694;9.476;2022-10-22T08:26:35;2.97;;;1.90;;
50012;SDS011;35901;48.694;9.476;2022-10-22T08:29:01;2.13;;;1.83;;
50012;SDS011;35901;48.694;9.476;2022-10-22T08:31:26;2.57;;;1.90;;
50012;SDS011;35901;48.694;9.476;2022-10-22T08:33:52;1.70;;;1.60;;
50012;SDS011;35901;48.694;9.476;2022-10-22T08:36:18;1.60;;;1.50;;
50012;SDS011;35901;48.694;9.476;2022-10-22T08:38:43;1.40;;;1.27;;
50012;SDS011;35901;48.694;9.476;2022-10-22T08:41:13;1.93;;;1.20;;
50012;SDS011;35901;48.694;9.476;2022-10-22T08:43:46;1.67;;;1.13;;
50012;SDS011;35901;48.694;9.476;2022-10-22T08:46:32;1.93;;;1.30;;
50012;SDS011;35901;48.694;9.476;2022-10-22T08:49:21;1.20;;;1.20;;
50012;SDS011;35901;48.694;9.476;2022-10-22T08:51:53;1.83;;;1.20;;
50012;SDS011;35901;48.694;9.476;2022-10-22T09:08:20;2.07;;;1.07;;
50012;SDS011;35901;48.694;9.476;2022-10-22T09:10:48;1.53;;;0.90;;
50012;SDS011;35901;48.694;9.476;2022-10-22T09:13:41;1.83;;;1.10;;
50012;SDS011;35901;48.694;9.476;2022-10-22T09:27:06;2.20;;;1.10;;
50012;SDS011;35901;48.694;9.476;2022-10-22T09:29:37;1.47;;;0.90;;
50012;SDS011;35901;48.694;9.476;2022-10-22T09:32:03;1.33;;;1.07;;
50012;SDS011;35901;48.694;9.476;2022-10-22T09:34:29;1.30;;;1.20;;
50012;SDS011;35901;48.694;9.476;2022-10-22T09:36:59;1.70;;;1.20;;
50012;SDS011;35901;48.694;9.476;2022-10-22T09:39:35;2.97;;;1.00;;
50012;SDS011;35901;48.694;9.476;2022-10-22T09:42:03;1.23;;;1.10;;
50012;SDS011;35901;48.694;9.476;2022-10-22T09:44:32;2.60;;;1.20;;
50012;SDS011;35901;48.694;9.476;2022-10-22T09:47:02;2.80;;;1.40;;
50012;SDS011;35901;48.694;9.476;2022-10-22T09:49:33;1.10;;;1.00;;
50012;SDS011;35901;48.694;9.476;2022-10-22T09:52:00;1.20;;;1.10;;
50012;SDS011;35901;48.694;9.476;2022-10-22T09:56:57;1.63;;;1.07;;
50012;SDS011;35901;48.694;9.476;2022-10-22T09:59:30;3.37;;;1.00;;
50012;SDS011;35901;48.694;9.476;2022-10-22T10:04:39;1.33;;;1.23;;
50012;SDS011;35901;48.694;9.476;2022-10-22T10:09:47;2.20;;;1.20;;
50012;SDS011;35901;48.694;9.476;2022-10-22T10:17:49;1.60;;;1.20;;
50012;SDS011;35901;48.694;9.476;2022-10-22T10:23:07;2.67;;;1.20;;
50012;SDS011;35901;48.694;9.476;2022-10-22T10:28:36;0.83;;;0.83;;
50012;SDS011;35901;48.694;9.476;2022-10-22T10:34:28;1.80;;;1.30;;
50012;SDS011;35901;48.694;9.476;2022-10-22T10:37:12;2.03;;;1.17;;
50012;SDS011;35901;48.694;9.476;2022-10-22T10:42:54;1.03;;;1.00;;
50012;SDS011;35901;48.694;9.476;2022-10-22T10:45:42;1.20;;;1.10;;
50012;SDS011;35901;48.694;9.476;2022-10-22T10:48:36;1.63;;;1.20;;
50012;SDS011;35901;48.694;9.476;2022-10-22T10:51:32;1.83;;;1.13;;
50012;SDS011;35901;48.694;9.476;2022-10-22T10:59:53;2.50;;;1.10;;
50012;SDS011;35901;48.694;9.476;2022-10-22T11:08:29;1.33;;;1.20;;
50012;SDS011;35901;48.694;9.476;2022-10-22T11:10:58;1.17;;;1.10;;
50012;SDS011;35901;48.694;9.476;2022-10-22T11:27:07;1.47;;;1.10;;
50012;SDS011;35901;48.694;9.476;2022-10-22T11:29:51;3.03;;;1.13;;
50012;SDS011;35901;48.694;9.476;2022-10-22T11:32:22;1.87;;;1.10;;
50012;SDS011;35901;48.694;9.476;2022-10-22T11:34:52;1.03;;;1.00;;
50012;SDS011;35901;48.694;9.476;2022-10-22T11:37:21;2.13;;;1.00;;
50012;SDS011;35901;48.694;9.476;2022-10-22T11:39:51;3.07;;;1.30;;
50012;SDS011;35901;48.694;9.476;2022-10-22T11:42:37;1.10;;;1.00;;
50012;SDS011;35901;48.694;9.476;2022-10-22T11:50:43;1.10;;;1.00;;
50012;SDS011;35901;48.694;9.476;2022-10-22T11:53:20;3.50;;;1.10;;
50012;SDS011;35901;48.694;9.476;2022-10-22T11:55:55;2.23;;;1.07;;
50012;SDS011;35901;48.694;9.476;2022-10-22T11:58:45;1.23;;;1.10;;
50012;SDS011;35901;48.694;9.476;2022-10-22T12:03:38;2.53;;;1.00;;
50012;SDS011;35901;48.694;9.476;2022-10-22T12:11:25;1.53;;;1.20;;
50012;SDS011;35901;48.694;9.476;2022-10-22T12:14:49;6.20;;;1.30;;
50012;SDS011;35901;48.694;9.476;2022-10-22T12:19:37;1.83;;;1.00;;
50012;SDS011;35901;48.694;9.476;2022-10-22T12:22:10;4.00;;;1.30;;
50012;SDS011;35901;48.694;9.476;2022-10-22T12:24:43;1.00;;;0.90;;
50012;SDS011;35901;48.694;9.476;2022-10-22T12:27:15;2.57;;;1.00;;
50012;SDS011;35901;48.694;9.476;2022-10-22T12:29:46;1.43;;;1.10;;
50012;SDS011;35901;48.694;9.476;2022-10-22T12:32:13;1.43;;;1.10;;
50012;SDS011;35901;48.694;9.476;2022-10-22T12:34:47;1.87;;;1.10;;
50012;SDS011;35901;48.694;9.476;2022-10-22T12:37:15;1.33;;;1.00;;
50012;SDS011;35901;48.694;9.476;2022-10-22T12:39:41;3.90;;;1.10;;
50012;SDS011;35901;48.694;9.476;2022-10-22T12:42:11;1.53;;;1.00;;
50012;SDS011;35901;48.694;9.476;2022-10-22T12:44:39;1.53;;;1.10;;
50012;SDS011;35901;48.694;9.476;2022-10-22T12:47:07;1.63;;;0.97;;
50012;SDS011;35901;48.694;9.476;2022-10-22T12:49:46;3.37;;;1.30;;
50012;SDS011;35901;48.694;9.476;2022-10-22T12:52:14;1.17;;;1.00;;
50012;SDS011;35901;48.694;9.476;2022-10-22T12:54:47;1.93;;;0.90;;
50012;SDS011;35901;48.694;9.476;2022-10-22T12:57:16;1.70;;;1.20;;
50012;SDS011;35901;48.694;9.476;2022-10-22T12:59:46;2.03;;;1.00;;
50012;SDS011;35901;48.694;9.476;2022-10-22T13:02:15;0.90;;;0.90;;
50012;SDS011;35901;48.694;9.476;2022-10-22T13:05:03;2.00;;;1.33;;
50012;SDS011;35901;48.694;9.476;2022-10-22T13:07:38;2.20;;;1.10;;
50012;SDS011;35901;48.694;9.476;2022-10-22T13:10:14;2.20;;;1.00;;
50012;SDS011;35901;48.694;9.476;2022-10-22T13:12:43;2.53;;;1.27;;
50012;SDS011;35901;48.694;9.476;2022-10-22T13:15:19;1.70;;;1.00;;
50012;SDS011;35901;48.694;9.476;2022-10-22T13:18:04;3.07;;;1.07;;
50012;SDS011;35901;48.694;9.476;2022-10-22T13:20:50;2.60;;;0.97;;
50012;SDS011;35901;48.694;9.476;2022-10-22T13:23:26;1.80;;;1.07;;
50012;SDS011;35901;48.694;9.476;2022-10-22T13:25:58;3.00;;;1.30;;
50012;SDS011;35901;48.694;9.476;2022-10-22T13:28:29;2.43;;;1.10;;
50012;SDS011;35901;48.694;9.476;2022-10-22T13:30:57;1.10;;;1.00;;
50012;SDS011;35901;48.694;9.476;2022-10-22T13:33:39;2.40;;;1.30;;
50012;SDS011;35901;48.694;9.476;2022-10-22T13:36:08;3.10;;;1.10;;
50012;SDS011;35901;48.694;9.476;2022-10-22T13:38:39;1.80;;;1.13;;
50012;SDS011;35901;48.694;9.476;2022-10-22T13:41:18;1.33;;;0.90;;
50012;SDS011;35901;48.694;9.476;2022-10-22T13:43:44;2.00;;;1.20;;
50012;SDS011;35901;48.694;9.476;2022-10-22T13:46:10;1.90;;;1.10;;
50012;SDS011;35901;48.694;9.476;2022-10-22T13:48:35;2.57;;;0.93;;
50012;SDS011;35901;48.694;9.476;2022-10-22T13:51:01;1.33;;;1.00;;
50012;SDS011;35901;48.694;9.476;2022-10-22T13:53:31;1.60;;;1.20;;
50012;SDS011;35901;48.694;9.476;2022-10-22T13:55:57;2.60;;;1.00;;
50012;SDS011;35901;48.694;9.476;2022-10-22T13:58:23;1.13;;;0.80;;
50012;SDS011;35901;48.694;9.476;2022-10-22T14:00:50;1.47;;;1.20;;
50012;SDS011;35901;48.694;9.476;2022-10-22T14:03:20;2.27;;;1.07;;
50012;SDS011;35901;48.694;9.476;2022-10-22T14:05:48;1.40;;;1.13;;
50012;SDS011;35901;48.694;9.476;2022-10-22T14:08:16;2.50;;;1.10;;
50012;SDS011;35901;48.694;9.476;2022-10-22T14:10:44;2.20;;;1.00;;
50012;SDS011;35901;48.694;9.476;2022-10-22T14:13:10;1.10;;;0.97;;
50012;SDS011;35901;48.694;9.476;2022-10-22T14:15:37;1.87;;;1.00;;
50012;SDS011;35901;48.694;9.476;2022-10-22T14:18:04;0.90;;;0.90;;
50012;SDS011;35901;48.694;9.476;2022-10-22T14:20:32;4.57;;;1.17;;
50012;SDS011;35901;48.694;9.476;2022-10-22T14:23:07;0.90;;;0.90;;
50012;SDS011;35901;48.694;9.476;2022-10-22T14:25:38;1.57;;;1.13;;
50012;SDS011;35901;48.694;9.476;2022-10-22T14:28:04;1.10;;;0.90;;
50012;SDS011;35901;48.694;9.476;2022-10-22T14:30:30;1.30;;;0.90;;
50012;SDS011;35901;48.694;9.476;2022-10-22T14:32:57;1.10;;;0.83;;
50012;SDS011;35901;48.694;9.476;2022-10-22T14:35:23;1.83;;;1.20;;
50012;SDS011;35901;48.694;9.476;2022-10-22T14:37:49;1.00;;;0.80;;
50012;SDS011;35901;48.694;9.476;2022-10-22T14:40:16;1.37;;;1.10;;
50012;SDS011;35901;48.694;9.476;2022-10-22T14:42:44;1.73;;;0.90;;
50012;SDS011;35901;48.694;9.476;2022-10-22T14:47:39;1.17;;;0.90;;
50012;SDS011;35901;48.694;9.476;2022-10-22T14:50:05;1.60;;;1.20;;
50012;SDS011;35901;48.694;9.476;2022-10-22T14:52:32;2.13;;;1.00;;
50012;SDS011;35901;48.694;9.476;2022-10-22T14:54:58;2.17;;;1.20;;
50012;SDS011;35901;48.694;9.476;2022-10-22T14:57:24;1.80;;;1.07;;
50012;SDS011;35901;48.694;9.476;2022-10-22T14:59:49;2.13;;;1.10;;
50012;SDS011;35901;48.694;9.476;2022-10-22T15:02:19;2.37;;;1.10;;
50012;SDS011;35901;48.694;9.476;2022-10-22T15:04:45;2.63;;;1.20;;
50012;SDS011;35901;48.694;9.476;2022-10-22T15:07:12;1.87;;;1.17;;
50012;SDS011;35901;48.694;9.476;2022-10-22T15:09:38;2.40;;;1.10;;
50012;SDS011;35901;48.694;9.476;2022-10-22T15:12:03;2.20;;;1.30;;
50012;SDS011;35901;48.694;9.476;2022-10-22T15:14:29;2.93;;;1.20;;
50012;SDS011;35901;48.694;9.476;2022-10-22T15:16:55;1.60;;;1.20;;
50012;SDS011;35901;48.694;9.476;2022-10-22T15:19:21;2.17;;;1.20;;
50012;SDS011;35901;48.694;9.476;2022-10-22T15:21:46;1.40;;;1.10;;
50012;SDS011;35901;48.694;9.476;2022-10-22T15:24:12;2.07;;;1.07;;
50012;SDS011;35901;48.694;9.476;2022-10-22T15:26:38;1.20;;;1.00;;
50012;SDS011;35901;48.694;9.476;2022-10-22T15:29:04;2.23;;;1.40;;
50012;SDS011;35901;48.694;9.476;2022-10-22T15:31:49;2.00;;;1.10;;
50012;SDS011;35901;48.694;9.476;2022-10-22T15:34:24;2.87;;;1.17;;
50012;SDS011;35901;48.694;9.476;2022-10-22T15:36:57;3.97;;;1.23;;
50012;SDS011;35901;48.694;9.476;2022-10-22T15:39:25;4.83;;;1.30;;
50012;SDS011;35901;48.694;9.476;2022-10-22T15:41:51;2.40;;;1.10;;
50012;SDS011;35901;48.694;9.476;2022-10-22T15:44:18;2.13;;;1.33;;
50012;SDS011;35901;48.694;9.476;2022-10-22T15:46:46;2.00;;;1.00;;
50012;SDS011;35901;48.694;9.476;2022-10-22T15:49:12;1.47;;;1.10;;
50012;SDS011;35901;48.694;9.476;2022-10-22T15:51:38;5.30;;;1.40;;
50012;SDS011;35901;48.694;9.476;2022-10-22T15:54:04;2.87;;;1.23;;
50012;SDS011;35901;48.694;9.476;2022-10-22T15:56:30;1.80;;;1.20;;
50012;SDS011;35901;48.694;9.476;2022-10-22T15:58:57;4.10;;;1.07;;
50012;SDS011;35901;48.694;9.476;2022-10-22T16:01:25;1.63;;;1.10;;
50012;SDS011;35901;48.694;9.476;2022-10-22T16:03:51;6.10;;;1.40;;
50012;SDS011;35901;48.694;9.476;2022-10-22T16:06:24;1.10;;;0.93;;
50012;SDS011;35901;48.694;9.476;2022-10-22T16:08:51;2.57;;;1.30;;
50012;SDS011;35901;48.694;9.476;2022-10-22T16:11:18;1.10;;;1.00;;
50012;SDS011;35901;48.694;9.476;2022-10-22T16:13:44;1.40;;;1.20;;
50012;SDS011;35901;48.694;9.476;2022-10-22T16:16:12;2.93;;;1.40;;
50012;SDS011;35901;48.694;9.476;2022-10-22T16:18:37;4.60;;;1.30;;
50012;SDS011;35901;48.694;9.476;2022-10-22T16:21:03;4.40;;;1.37;;
50012;SDS011;35901;48.694;9.476;2022-10-22T16:23:29;3.63;;;1.03;;
50012;SDS011;35901;48.694;9.476;2022-10-22T16:25:54;3.20;;;1.23;;
50012;SDS011;35901;48.694;9.476;2022-10-22T16:28:20;3.23;;;1.37;;
50012;SDS011;35901;48.694;9.476;2022-10-22T16:30:46;2.07;;;1.30;;
50012;SDS011;35901;48.694;9.476;2022-10-22T16:33:11;4.30;;;1.47;;
50012;SDS011;35901;48.694;9.476;2022-10-22T16:35:38;3.23;;;1.43;;
50012;SDS011;35901;48.694;9.476;2022-10-22T16:38:05;4.27;;;1.47;;
50012;SDS011;35901;48.694;9.476;2022-10-22T16:40:31;3.03;;;1.77;;
50012;SDS011;35901;48.694;9.476;2022-10-22T16:42:57;4.90;;;2.07;;
50012;SDS011;35901;48.694;9.476;2022-10-22T16:45:22;3.70;;;1.83;;
50012;SDS011;35901;48.694;9.476;2022-10-22T16:47:48;4.63;;;2.50;;
50012;SDS011;35901;48.694;9.476;2022-10-22T16:50:14;5.23;;;1.90;;
50012;SDS011;35901;48.694;9.476;2022-10-22T16:52:40;3.40;;;1.90;;
50012;SDS011;35901;48.694;9.476;2022-10-22T16:55:05;4.77;;;2.07;;
50012;SDS011;35901;48.694;9.476;2022-10-22T16:57:31;3.77;;;1.70;;
50012;SDS011;35901;48.694;9.476;2022-10-22T16:59:58;5.57;;;2.00;;